Time;durP1;ratioP1;P1;durP2;ratioP2;P2;SDS_P1;SDS_P2;PMS_P1;PMS_P2;Temp;Humidity;BMP_temperature;BMP_pressure;BME280_temperature;BME280_humidity;BME280_pressure;Samples;Min_cycle;Max_cycle;Signal;HPM_P1;HPM_P2
2023/06/11 00:01:54;;;;;;;17.10;12.70;;;14.80;99.90;;;;;;5119760;28;20819;-80
2023/06/11 00:04:24;;;;;;;17.10;12.40;;;14.80;99.90;;;;;;5118928;28;20259;-78
2023/06/11 00:06:53;;;;;;;16.30;12.60;;;14.80;99.90;;;;;;5118234;28;20224;-78
2023/06/11 00:09:20;;;;;;;19.40;13.00;;;15.10;99.90;;;;;;5118740;28;20204;-79
2023/06/11 00:11:47;;;;;;;16.27;11.95;;;15.40;99.90;;;;;;5118441;28;20207;-79
2023/06/11 00:14:13;;;;;;;16.00;12.07;;;15.30;99.90;;;;;;5118773;28;20225;-79
2023/06/11 00:16:43;;;;;;;16.55;12.05;;;15.20;99.90;;;;;;5118440;28;20193;-80
2023/06/11 00:19:12;;;;;;;15.73;11.95;;;15.20;99.90;;;;;;5118672;28;20200;-80
2023/06/11 00:21:43;;;;;;;20.08;12.10;;;15.30;99.90;;;;;;5118607;28;20230;-80
2023/06/11 00:24:11;;;;;;;13.75;11.95;;;15.40;99.90;;;;;;5118200;28;20221;-78
2023/06/11 00:26:43;;;;;;;20.20;11.85;;;15.50;99.90;;;;;;5116827;28;20232;-77
2023/06/11 00:29:10;;;;;;;14.40;11.20;;;15.60;99.90;;;;;;5118656;28;20284;-79
2023/06/11 00:31:37;;;;;;;14.07;11.30;;;15.50;99.90;;;;;;5118064;28;20208;-79
2023/06/11 00:34:04;;;;;;;18.33;11.50;;;15.10;99.90;;;;;;5118240;28;20285;-78
2023/06/11 00:36:33;;;;;;;13.88;11.48;;;14.60;99.90;;;;;;5118338;28;20196;-80
2023/06/11 00:39:00;;;;;;;15.73;11.52;;;14.40;99.90;;;;;;5118516;28;20208;-80
2023/06/11 00:41:29;;;;;;;18.45;12.25;;;14.30;99.90;;;;;;5118506;28;20208;-81
2023/06/11 00:43:56;;;;;;;20.15;13.25;;;14.40;99.90;;;;;;5119147;28;20320;-80
2023/06/11 00:46:24;;;;;;;15.95;11.93;;;14.30;99.90;;;;;;5117487;28;20220;-78
2023/06/11 00:48:51;;;;;;;15.75;12.15;;;14.40;99.90;;;;;;5118777;28;20204;-78
2023/06/11 00:51:21;;;;;;;15.38;11.10;;;14.40;99.90;;;;;;5118695;28;20288;-79
2023/06/11 00:53:51;;;;;;;16.30;12.07;;;14.40;99.90;;;;;;5118093;28;20217;-80
2023/06/11 00:56:19;;;;;;;14.75;11.52;;;14.10;99.90;;;;;;5118321;28;20197;-80
2023/06/11 00:58:47;;;;;;;16.80;12.68;;;14.30;99.90;;;;;;5119304;28;20211;-79
2023/06/11 01:01:19;;;;;;;16.85;11.70;;;14.60;99.90;;;;;;5119139;28;20741;-80
2023/06/11 01:03:47;;;;;;;15.53;11.70;;;14.60;99.90;;;;;;5118472;28;20369;-78
2023/06/11 01:06:17;;;;;;;15.15;11.93;;;14.50;99.90;;;;;;5118722;28;20342;-77
2023/06/11 01:08:52;;;;;;;17.88;11.65;;;14.40;99.90;;;;;;5118531;28;20262;-77
2023/06/11 01:11:22;;;;;;;15.45;12.07;;;14.20;99.90;;;;;;5118523;28;20593;-78
2023/06/11 01:13:49;;;;;;;17.58;11.68;;;14.40;99.90;;;;;;5118464;28;20231;-80
2023/06/11 01:16:25;;;;;;;16.15;11.55;;;14.50;99.90;;;;;;5118409;28;20284;-77
2023/06/11 01:19:03;;;;;;;14.98;10.95;;;14.50;99.90;;;;;;5118380;28;20234;-78
2023/06/11 01:21:38;;;;;;;16.75;12.27;;;14.60;99.90;;;;;;5119020;28;20209;-80
2023/06/11 01:24:16;;;;;;;16.90;11.10;;;14.50;99.90;;;;;;5122375;28;20251;-80
2023/06/11 01:27:00;;;;;;;17.00;11.63;;;14.60;99.90;;;;;;5121927;28;20253;-80
2023/06/11 01:29:29;;;;;;;13.95;10.73;;;14.40;99.90;;;;;;5121850;28;20224;-80
2023/06/11 01:31:58;;;;;;;18.55;11.35;;;14.50;99.90;;;;;;5121653;28;20207;-80
2023/06/11 01:34:25;;;;;;;14.98;11.13;;;14.60;99.90;;;;;;5122568;28;20221;-80
2023/06/11 01:36:52;;;;;;;16.60;11.65;;;14.50;99.90;;;;;;5121931;28;20720;-80
2023/06/11 01:39:19;;;;;;;13.23;10.38;;;14.20;99.90;;;;;;5122034;28;20219;-79
2023/06/11 01:41:46;;;;;;;15.93;10.75;;;14.20;99.90;;;;;;5121170;28;20209;-79
2023/06/11 01:44:13;;;;;;;15.65;11.13;;;14.20;99.90;;;;;;5121785;28;20213;-77
2023/06/11 01:46:41;;;;;;;15.52;11.10;;;14.20;99.90;;;;;;5120937;28;20225;-79
2023/06/11 01:49:08;;;;;;;15.27;10.85;;;14.00;99.90;;;;;;5121915;28;20208;-78
2023/06/11 01:51:35;;;;;;;17.20;11.32;;;13.60;99.90;;;;;;5121452;28;20213;-80
2023/06/11 01:54:02;;;;;;;19.13;11.10;;;13.50;99.90;;;;;;5120883;28;20252;-80
2023/06/11 01:56:29;;;;;;;14.50;11.10;;;13.50;99.90;;;;;;5120911;28;20260;-77
2023/06/11 01:58:57;;;;;;;18.02;11.88;;;13.80;99.90;;;;;;5121953;28;20205;-79
2023/06/11 02:01:24;;;;;;;14.45;10.95;;;13.60;99.90;;;;;;5121691;28;20686;-78
2023/06/11 02:03:52;;;;;;;14.10;11.60;;;13.70;99.90;;;;;;5121227;28;20213;-79
2023/06/11 02:06:19;;;;;;;15.52;11.18;;;13.80;99.90;;;;;;5120567;28;20225;-79
2023/06/11 02:08:46;;;;;;;16.48;11.70;;;13.70;99.90;;;;;;5121557;28;20266;-78
2023/06/11 02:11:13;;;;;;;16.40;12.73;;;14.10;99.90;;;;;;5121201;28;20208;-80
2023/06/11 02:13:40;;;;;;;16.70;11.55;;;14.00;99.90;;;;;;5112253;28;20241;-78
2023/06/11 02:16:07;;;;;;;14.98;10.27;;;14.00;99.90;;;;;;5115956;28;20288;-79
2023/06/11 02:18:33;;;;;;;18.83;11.20;;;14.10;99.90;;;;;;5120379;28;20645;-79
2023/06/11 02:21:02;;;;;;;14.00;10.38;;;13.90;99.90;;;;;;5119931;28;20229;-77
2023/06/11 02:23:29;;;;;;;15.93;10.50;;;13.60;99.90;;;;;;5120499;28;20591;-76
2023/06/11 02:25:56;;;;;;;19.37;10.73;;;13.30;99.90;;;;;;5121042;28;20908;-80
2023/06/11 02:28:23;;;;;;;17.07;11.57;;;12.90;99.90;;;;;;5120589;28;20197;-78
2023/06/11 02:30:50;;;;;;;16.90;11.67;;;12.50;99.90;;;;;;5120969;28;20228;-79
2023/06/11 02:33:17;;;;;;;20.90;11.93;;;12.90;99.90;;;;;;5120248;28;20307;-77
2023/06/11 02:35:44;;;;;;;16.40;12.30;;;12.90;99.90;;;;;;5121016;28;20201;-80
2023/06/11 02:38:12;;;;;;;17.57;11.97;;;12.90;99.90;;;;;;5120819;28;20200;-80
2023/06/11 02:40:39;;;;;;;18.67;12.30;;;13.20;99.90;;;;;;5120340;28;20283;-79
2023/06/11 02:43:05;;;;;;;16.33;11.73;;;13.50;99.90;;;;;;5119867;28;20308;-78
2023/06/11 02:45:32;;;;;;;17.50;11.30;;;13.70;99.90;;;;;;5118129;28;20200;-80
2023/06/11 02:47:59;;;;;;;15.07;11.40;;;13.70;99.90;;;;;;5120011;28;20284;-79
2023/06/11 02:50:26;;;;;;;20.17;11.60;;;13.80;99.90;;;;;;5119264;28;20291;-80
2023/06/11 02:52:52;;;;;;;15.27;10.43;;;13.90;99.90;;;;;;5120324;28;20214;-79
2023/06/11 02:55:21;;;;;;;15.90;11.10;;;13.90;99.90;;;;;;5119941;28;20571;-78
2023/06/11 02:57:47;;;;;;;17.03;10.87;;;13.90;99.90;;;;;;5120074;28;20197;-80
2023/06/11 03:00:15;;;;;;;16.75;11.38;;;13.80;99.90;;;;;;5120194;28;20296;-80
2023/06/11 03:02:41;;;;;;;16.30;10.87;;;13.80;99.90;;;;;;5118574;28;20225;-79
2023/06/11 03:05:09;;;;;;;15.20;11.47;;;13.70;99.90;;;;;;5117624;28;20193;-78
2023/06/11 03:07:35;;;;;;;16.55;11.23;;;13.70;99.90;;;;;;5118040;28;20212;-80
2023/06/11 03:10:02;;;;;;;16.15;10.88;;;13.60;99.90;;;;;;5117613;28;20224;-78
2023/06/11 03:12:31;;;;;;;15.43;10.90;;;13.60;99.90;;;;;;5120307;28;20237;-78
2023/06/11 03:14:57;;;;;;;15.13;11.73;;;13.70;99.90;;;;;;5117626;28;20251;-80
2023/06/11 03:17:24;;;;;;;14.70;10.30;;;13.70;99.90;;;;;;5119817;28;20197;-79
2023/06/11 03:19:51;;;;;;;16.73;10.97;;;13.70;99.90;;;;;;5118752;28;20216;-79
2023/06/11 03:22:18;;;;;;;17.58;11.10;;;13.80;99.90;;;;;;5119928;28;20189;-80
2023/06/11 03:24:45;;;;;;;16.23;10.33;;;13.70;99.90;;;;;;5119815;28;20296;-80
2023/06/11 03:27:11;;;;;;;16.63;10.63;;;13.60;99.90;;;;;;5119827;28;20312;-80
2023/06/11 03:29:40;;;;;;;14.88;10.20;;;13.40;99.90;;;;;;5120693;28;20576;-78
2023/06/11 03:32:08;;;;;;;18.48;10.70;;;13.40;99.90;;;;;;5119562;28;20207;-79
2023/06/11 03:34:35;;;;;;;15.47;10.20;;;13.50;99.90;;;;;;5118931;28;20765;-79
2023/06/11 03:37:01;;;;;;;17.13;10.48;;;13.90;99.90;;;;;;5119732;28;20198;-78
2023/06/11 03:39:28;;;;;;;14.88;10.27;;;14.00;99.90;;;;;;5119980;28;20284;-80
2023/06/11 03:41:55;;;;;;;16.95;9.75;;;14.10;99.90;;;;;;5120001;28;20200;-79
2023/06/11 03:44:22;;;;;;;16.10;10.10;;;14.20;99.90;;;;;;5119090;28;20221;-78
2023/06/11 03:46:50;;;;;;;11.65;8.77;;;14.40;99.90;;;;;;5118078;28;20217;-80
2023/06/11 03:49:17;;;;;;;15.32;9.65;;;14.30;99.90;;;;;;5118887;28;20211;-79
2023/06/11 03:51:44;;;;;;;14.02;9.10;;;14.30;99.90;;;;;;5118614;28;20233;-80
2023/06/11 03:54:11;;;;;;;12.35;9.35;;;14.20;99.90;;;;;;5119772;28;20280;-79
2023/06/11 03:56:38;;;;;;;12.82;9.55;;;14.10;99.90;;;;;;5119249;28;20258;-79
2023/06/11 03:59:04;;;;;;;15.25;10.75;;;14.10;99.90;;;;;;5119457;28;20567;-77
2023/06/11 04:01:31;;;;;;;14.82;10.30;;;14.30;99.90;;;;;;5119424;28;20232;-78
2023/06/11 04:03:59;;;;;;;13.55;9.05;;;14.30;99.90;;;;;;5119660;28;20308;-79
2023/06/11 04:06:27;;;;;;;16.20;9.50;;;14.30;99.90;;;;;;5118216;28;20288;-80
2023/06/11 04:08:54;;;;;;;14.95;9.48;;;14.50;99.90;;;;;;5119680;28;20201;-80
2023/06/11 04:11:21;;;;;;;11.00;9.02;;;15.30;99.90;;;;;;5119659;28;20277;-80
2023/06/11 04:13:50;;;;;;;13.60;9.07;;;16.30;99.90;;;;;;5118599;28;20293;-80
2023/06/11 04:16:17;;;;;;;13.40;8.93;;;16.90;99.90;;;;;;5117935;28;20336;-80
2023/06/11 04:18:44;;;;;;;13.15;9.13;;;17.20;99.90;;;;;;5119055;28;20576;-80
2023/06/11 04:21:12;;;;;;;10.95;8.15;;;17.70;99.90;;;;;;5119204;28;20296;-78
2023/06/11 04:23:39;;;;;;;11.02;8.23;;;17.60;99.90;;;;;;5118400;28;20216;-80
2023/06/11 04:26:07;;;;;;;13.15;8.20;;;17.10;99.90;;;;;;5118298;28;20298;-79
2023/06/11 04:28:36;;;;;;;10.32;7.88;;;16.70;99.90;;;;;;5119081;28;20228;-79
2023/06/11 04:31:02;;;;;;;11.93;8.63;;;16.20;99.90;;;;;;5118711;28;20208;-78
2023/06/11 04:33:32;;;;;;;15.20;8.80;;;15.80;99.90;;;;;;5119643;28;20217;-78
2023/06/11 04:36:00;;;;;;;13.20;8.65;;;15.70;99.90;;;;;;5118847;28;20208;-79
2023/06/11 04:38:28;;;;;;;14.20;8.32;;;15.80;99.90;;;;;;5119572;28;20208;-79
2023/06/11 04:40:55;;;;;;;13.10;8.25;;;15.80;99.90;;;;;;5119184;28;20205;-79
2023/06/11 04:43:23;;;;;;;10.80;8.23;;;15.80;99.90;;;;;;5120105;28;20217;-79
2023/06/11 04:45:55;;;;;;;14.05;8.40;;;15.80;99.90;;;;;;5118552;28;20201;-78
2023/06/11 04:48:22;;;;;;;11.82;8.27;;;15.90;99.90;;;;;;5118293;28;20220;-78
2023/06/11 04:50:50;;;;;;;12.60;8.50;;;15.90;99.90;;;;;;5119400;28;20200;-79
2023/06/11 04:53:21;;;;;;;13.70;8.45;;;15.90;99.90;;;;;;5118891;28;20224;-78
2023/06/11 04:55:50;;;;;;;15.00;8.57;;;16.00;99.90;;;;;;5119541;28;20192;-79
2023/06/11 04:58:20;;;;;;;13.15;9.20;;;16.00;99.90;;;;;;5123345;28;20201;-77
2023/06/11 05:00:47;;;;;;;12.65;8.52;;;16.00;99.90;;;;;;5123064;28;20287;-79
2023/06/11 05:03:16;;;;;;;13.10;10.20;;;16.10;99.90;;;;;;5123888;28;20301;-80
2023/06/11 05:05:50;;;;;;;12.63;9.30;;;16.30;99.90;;;;;;5123656;28;20224;-77
2023/06/11 05:08:18;;;;;;;11.57;9.60;;;16.40;99.90;;;;;;5123514;28;20227;-77
2023/06/11 05:10:45;;;;;;;13.60;8.57;;;16.40;99.90;;;;;;5125046;28;20259;-77
2023/06/11 05:13:14;;;;;;;12.80;8.85;;;16.60;99.90;;;;;;5124797;28;20241;-76
2023/06/11 05:15:41;;;;;;;13.55;9.10;;;16.80;99.90;;;;;;5123648;28;20692;-79
2023/06/11 05:18:08;;;;;;;11.05;9.23;;;16.80;99.90;;;;;;5124580;28;20658;-77
2023/06/11 05:20:35;;;;;;;13.35;9.63;;;16.90;99.90;;;;;;5122631;28;20205;-79
2023/06/11 05:23:03;;;;;;;14.25;9.75;;;16.80;99.90;;;;;;5122811;28;20696;-77
2023/06/11 05:25:31;;;;;;;12.57;9.80;;;16.90;99.90;;;;;;5123678;28;20204;-77
2023/06/11 05:27:59;;;;;;;16.45;9.90;;;16.90;99.90;;;;;;5123946;28;20276;-76
2023/06/11 05:30:29;;;;;;;16.58;9.93;;;17.00;99.90;;;;;;5122809;28;20209;-77
2023/06/11 05:32:58;;;;;;;17.52;9.98;;;17.00;99.90;;;;;;5124574;28;20790;-78
2023/06/11 05:35:25;;;;;;;14.18;9.90;;;17.40;99.90;;;;;;5122578;28;20201;-78
2023/06/11 05:37:52;;;;;;;11.77;9.88;;;18.00;99.90;;;;;;5122754;28;20200;-78
2023/06/11 05:40:19;;;;;;;15.60;10.02;;;18.70;99.90;;;;;;5123081;28;20219;-77
2023/06/11 05:42:46;;;;;;;13.07;10.38;;;19.40;99.90;;;;;;5122968;28;20211;-78
2023/06/11 05:45:13;;;;;;;13.25;10.27;;;18.60;99.90;;;;;;5122613;28;20197;-78
2023/06/11 05:47:41;;;;;;;13.15;10.70;;;18.40;99.90;;;;;;5117635;28;20231;-78
2023/06/11 05:50:08;;;;;;;13.05;10.68;;;18.30;99.90;;;;;;5122399;28;20211;-77
2023/06/11 05:52:35;;;;;;;12.93;10.10;;;18.60;99.90;;;;;;5122434;28;20231;-78
2023/06/11 05:55:02;;;;;;;16.00;10.25;;;18.30;99.90;;;;;;5123004;28;20574;-79
2023/06/11 05:57:29;;;;;;;14.65;10.20;;;18.50;99.90;;;;;;5123484;28;20201;-78
2023/06/11 05:59:56;;;;;;;12.55;10.35;;;18.50;99.90;;;;;;5122873;28;20220;-79
2023/06/11 06:02:23;;;;;;;13.70;10.73;;;18.20;99.90;;;;;;5122960;28;20236;-79
2023/06/11 06:04:51;;;;;;;13.15;10.98;;;18.40;99.90;;;;;;5122848;28;20237;-77
2023/06/11 06:07:18;;;;;;;16.58;12.13;;;18.50;99.90;;;;;;5122973;28;20225;-79
2023/06/11 06:09:45;;;;;;;15.98;11.90;;;18.70;99.90;;;;;;5121898;28;20286;-77
2023/06/11 06:12:12;;;;;;;15.52;11.18;;;18.60;99.90;;;;;;5122405;28;20201;-77
2023/06/11 06:14:38;;;;;;;15.93;11.98;;;18.60;99.90;;;;;;5122765;28;20231;-78
2023/06/11 06:17:06;;;;;;;16.25;11.93;;;18.70;99.90;;;;;;5122802;28;20243;-77
2023/06/11 06:19:33;;;;;;;14.57;11.65;;;18.80;99.90;;;;;;5122910;28;20211;-78
2023/06/11 06:22:01;;;;;;;15.75;11.48;;;18.80;99.90;;;;;;5122768;28;20228;-78
2023/06/11 06:24:27;;;;;;;16.45;12.00;;;18.80;99.90;;;;;;5121762;28;20224;-77
2023/06/11 06:26:56;;;;;;;17.23;12.60;;;18.90;99.90;;;;;;5123679;28;20292;-77
2023/06/11 06:29:23;;;;;;;18.67;12.13;;;19.10;99.90;;;;;;5122349;28;20336;-76
2023/06/11 06:31:50;;;;;;;13.73;11.63;;;19.10;99.90;;;;;;5122300;28;20268;-80
2023/06/11 06:34:17;;;;;;;16.73;11.60;;;19.20;99.90;;;;;;5121482;28;20223;-76
2023/06/11 06:36:45;;;;;;;15.52;12.02;;;19.10;99.90;;;;;;5120910;28;20211;-77
2023/06/11 06:39:14;;;;;;;16.13;11.63;;;19.20;99.90;;;;;;5122885;28;20204;-79
2023/06/11 06:41:40;;;;;;;13.50;11.65;;;19.30;99.90;;;;;;5122343;28;20231;-79
2023/06/11 06:44:07;;;;;;;15.02;12.18;;;19.50;99.90;;;;;;5122709;28;20231;-79
2023/06/11 06:46:34;;;;;;;16.83;11.90;;;19.40;99.90;;;;;;5121923;28;20713;-79
2023/06/11 06:49:01;;;;;;;15.02;11.82;;;19.50;99.90;;;;;;5122106;28;20216;-79
2023/06/11 06:51:27;;;;;;;18.75;12.35;;;19.80;99.90;;;;;;5121227;28;20219;-80
2023/06/11 06:53:54;;;;;;;16.73;12.88;;;19.70;99.90;;;;;;5121016;28;20756;-78
2023/06/11 06:56:22;;;;;;;16.70;12.95;;;19.70;99.90;;;;;;5121999;28;20211;-78
2023/06/11 06:58:49;;;;;;;14.77;11.35;;;19.80;99.90;;;;;;5120787;28;20201;-78
2023/06/11 07:01:16;;;;;;;17.75;12.93;;;19.80;99.90;;;;;;5121328;28;20574;-77
2023/06/11 07:03:43;;;;;;;16.90;12.35;;;19.90;99.90;;;;;;5120347;28;20231;-79
2023/06/11 07:06:10;;;;;;;15.52;12.10;;;19.80;99.90;;;;;;5120048;28;20208;-78
2023/06/11 07:08:38;;;;;;;16.17;11.82;;;20.00;99.90;;;;;;5121675;28;20212;-78
2023/06/11 07:11:05;;;;;;;14.77;12.23;;;20.00;99.90;;;;;;5121323;28;20203;-77
2023/06/11 07:13:35;;;;;;;19.05;12.23;;;20.00;99.90;;;;;;5121382;28;20270;-78
2023/06/11 07:16:02;;;;;;;17.35;12.43;;;20.20;99.90;;;;;;5120893;28;20204;-78
2023/06/11 07:18:29;;;;;;;14.38;11.70;;;20.30;99.90;;;;;;5121641;28;20203;-78
2023/06/11 07:20:56;;;;;;;16.95;12.13;;;20.30;99.90;;;;;;5121200;28;20293;-77
2023/06/11 07:23:23;;;;;;;16.02;12.23;;;20.30;99.90;;;;;;5121697;28;20308;-76
2023/06/11 07:25:50;;;;;;;14.80;12.15;;;20.30;99.90;;;;;;5121343;28;20203;-79
2023/06/11 07:28:16;;;;;;;15.98;12.35;;;20.40;99.90;;;;;;5122133;28;20259;-80
2023/06/11 07:30:45;;;;;;;15.52;11.82;;;20.50;99.90;;;;;;5121946;28;20201;-78
2023/06/11 07:33:12;;;;;;;14.48;11.32;;;20.60;99.90;;;;;;5121779;28;20311;-79
2023/06/11 07:35:39;;;;;;;17.55;12.18;;;20.70;99.90;;;;;;5121528;28;20201;-78
2023/06/11 07:38:05;;;;;;;15.20;11.77;;;20.80;99.90;;;;;;5121924;28;20200;-78
2023/06/11 07:40:32;;;;;;;15.93;11.38;;;20.80;99.90;;;;;;5122915;28;20197;-77
2023/06/11 07:42:59;;;;;;;14.57;11.30;;;20.80;99.90;;;;;;5120821;28;20712;-78
2023/06/11 07:45:26;;;;;;;13.70;11.40;;;20.90;99.90;;;;;;5121294;28;20297;-78
2023/06/11 07:47:54;;;;;;;15.20;11.32;;;20.90;99.90;;;;;;5121778;28;20257;-77
2023/06/11 07:50:21;;;;;;;14.48;10.95;;;20.90;99.90;;;;;;5121425;28;20205;-78
2023/06/11 07:52:48;;;;;;;17.77;12.00;;;21.00;99.90;;;;;;5120712;28;20208;-77
2023/06/11 07:55:15;;;;;;;14.88;11.13;;;21.20;99.90;;;;;;5121708;28;20196;-78
2023/06/11 07:57:41;;;;;;;15.50;11.55;;;21.20;99.90;;;;;;5121762;28;20193;-77
2023/06/11 08:00:12;;;;;;;14.30;11.38;;;21.10;99.90;;;;;;5121621;28;20291;-78
2023/06/11 08:02:40;;;;;;;15.45;10.38;;;21.30;99.90;;;;;;5121318;28;20212;-79
2023/06/11 08:05:10;;;;;;;14.30;10.73;;;21.30;99.90;;;;;;5120610;28;20213;-78
2023/06/11 08:07:36;;;;;;;15.18;10.93;;;21.60;99.90;;;;;;5121064;28;20252;-77
2023/06/11 08:10:04;;;;;;;14.70;10.38;;;21.50;99.90;;;;;;5121747;28;20196;-79
2023/06/11 08:12:31;;;;;;;14.68;10.93;;;21.60;99.90;;;;;;5119552;28;20297;-77
2023/06/11 08:14:57;;;;;;;12.43;10.20;;;21.60;99.90;;;;;;5119727;28;20689;-77
2023/06/11 08:17:24;;;;;;;15.73;11.02;;;21.60;99.90;;;;;;5119925;28;20283;-79
2023/06/11 08:19:51;;;;;;;12.35;10.35;;;21.80;99.90;;;;;;5115703;28;20284;-77
2023/06/11 08:22:19;;;;;;;12.07;10.38;;;21.80;99.90;;;;;;5117933;28;20766;-80
2023/06/11 08:24:46;;;;;;;11.85;10.52;;;22.00;99.90;;;;;;5121150;28;20288;-77
2023/06/11 08:27:13;;;;;;;12.63;10.60;;;21.80;99.90;;;;;;5120362;28;20292;-79
2023/06/11 08:29:40;;;;;;;11.23;9.60;;;21.90;99.90;;;;;;5119620;28;20216;-78
2023/06/11 08:32:07;;;;;;;12.73;10.05;;;21.90;99.90;;;;;;5124586;28;20200;-78
2023/06/11 08:34:34;;;;;;;13.23;9.90;;;22.10;99.90;;;;;;5123081;28;20266;-77
2023/06/11 08:37:01;;;;;;;14.18;9.43;;;22.20;99.90;;;;;;5123595;28;20205;-78
2023/06/11 08:39:29;;;;;;;12.27;9.32;;;22.30;99.90;;;;;;5126488;28;20416;-77
2023/06/11 08:41:56;;;;;;;13.95;10.65;;;22.30;99.90;;;;;;5127793;28;20196;-79
2023/06/11 08:44:23;;;;;;;12.15;9.32;;;22.40;99.90;;;;;;5127832;28;20225;-77
2023/06/11 08:46:52;;;;;;;15.45;9.40;;;22.40;99.90;;;;;;5127348;28;20271;-76
2023/06/11 08:49:22;;;;;;;14.52;9.90;;;22.60;99.90;;;;;;5127677;28;20244;-78
2023/06/11 08:51:49;;;;;;;11.82;9.50;;;22.80;99.90;;;;;;5126739;28;20212;-77
2023/06/11 08:54:18;;;;;;;10.98;8.77;;;22.70;99.90;;;;;;5126477;28;20311;-77
2023/06/11 08:56:46;;;;;;;12.13;9.75;;;22.60;99.90;;;;;;5127253;28;20211;-75
2023/06/11 08:59:13;;;;;;;11.90;8.80;;;22.50;99.90;;;;;;5126969;28;20203;-77
2023/06/11 09:01:40;;;;;;;12.23;8.90;;;23.00;99.90;;;;;;5128115;28;20264;-79
2023/06/11 09:04:07;;;;;;;11.95;8.70;;;22.90;99.90;;;;;;5127122;28;20296;-78
2023/06/11 09:06:34;;;;;;;13.38;8.93;;;23.30;99.90;;;;;;5127276;28;20203;-78
2023/06/11 09:09:02;;;;;;;11.90;8.10;;;23.40;99.90;;;;;;5126370;28;20224;-77
2023/06/11 09:11:33;;;;;;;11.15;8.27;;;23.70;99.90;;;;;;5126504;28;20235;-77
2023/06/11 09:14:02;;;;;;;12.10;8.32;;;24.10;99.90;;;;;;5127641;28;20227;-79
2023/06/11 09:16:29;;;;;;;9.93;7.80;;;24.20;99.90;;;;;;5126976;28;20200;-79
2023/06/11 09:18:56;;;;;;;10.50;7.72;;;24.40;99.90;;;;;;5127481;28;20189;-78
2023/06/11 09:21:25;;;;;;;10.13;8.27;;;24.60;99.90;;;;;;5125825;28;20201;-77
2023/06/11 09:23:52;;;;;;;9.60;7.15;;;24.80;99.90;;;;;;5125533;28;20236;-77
2023/06/11 09:26:19;;;;;;;8.23;7.25;;;24.80;1.00;;;;;;5126759;28;20203;-79
2023/06/11 09:28:47;;;;;;;10.73;8.20;;;24.80;99.90;;;;;;5128083;28;20220;-79
2023/06/11 09:31:20;;;;;;;11.90;7.13;;;25.10;99.90;;;;;;5127380;28;20208;-76
2023/06/11 09:33:47;;;;;;;9.52;6.82;;;25.20;1.00;;;;;;5127893;28;20254;-76
2023/06/11 09:36:17;;;;;;;8.93;7.13;;;25.40;99.90;;;;;;5127875;28;20276;-78
2023/06/11 09:38:46;;;;;;;9.00;6.68;;;25.20;99.90;;;;;;5126638;28;20206;-78
2023/06/11 09:41:13;;;;;;;8.23;6.55;;;25.50;61.90;;;;;;5127680;28;20204;-77
2023/06/11 09:43:40;;;;;;;7.57;6.55;;;25.30;1.00;;;;;;5124996;28;20247;-78
2023/06/11 09:46:08;;;;;;;8.50;6.53;;;25.30;1.00;;;;;;5123427;28;20279;-76
2023/06/11 09:48:37;;;;;;;8.25;6.25;;;25.50;1.00;;;;;;5123565;28;20611;-77
2023/06/11 09:51:05;;;;;;;12.52;6.80;;;26.00;1.00;;;;;;5123941;28;20292;-79
2023/06/11 09:53:34;;;;;;;10.57;7.30;;;25.80;1.00;;;;;;5123181;28;20232;-80
2023/06/11 09:56:00;;;;;;;9.02;6.45;;;25.60;99.90;;;;;;5124164;28;20502;-79
2023/06/11 09:58:31;;;;;;;9.95;6.60;;;25.80;99.90;;;;;;5103813;28;20277;-78
2023/06/11 10:01:00;;;;;;;9.30;6.68;;;25.70;99.90;;;;;;5104339;28;20201;-78
2023/06/11 10:03:27;;;;;;;7.93;6.30;;;25.90;95.60;;;;;;5103688;28;20286;-75
2023/06/11 10:05:59;;;;;;;7.60;5.93;;;25.70;1.00;;;;;;5103255;28;20205;-79
2023/06/11 10:08:31;;;;;;;9.43;5.85;;;25.80;1.00;;;;;;5104323;28;20225;-79
2023/06/11 10:11:03;;;;;;;9.23;5.55;;;25.90;1.00;;;;;;5103596;28;20198;-79
2023/06/11 10:13:30;;;;;;;10.25;6.13;;;26.00;99.90;;;;;;5102904;28;20264;-79
2023/06/11 10:15:59;;;;;;;12.63;6.40;;;26.10;99.90;;;;;;5102813;28;20289;-77
2023/06/11 10:18:26;;;;;;;7.85;6.40;;;26.40;99.90;;;;;;5103851;28;20202;-75
2023/06/11 10:20:55;;;;;;;10.73;6.50;;;26.30;1.00;;;;;;5102259;28;20244;-77
2023/06/11 10:23:22;;;;;;;11.05;6.15;;;26.40;1.00;;;;;;5101702;28;20659;-77
2023/06/11 10:25:54;;;;;;;6.43;5.25;;;26.40;1.00;;;;;;5101857;28;20197;-77
2023/06/11 10:28:23;;;;;;;7.97;5.25;;;26.60;1.00;;;;;;5109139;28;20224;-78
2023/06/11 10:30:53;;;;;;;8.13;5.00;;;26.40;99.90;;;;;;5123550;28;20394;-77
2023/06/11 10:33:20;;;;;;;8.98;4.78;;;26.50;99.90;;;;;;5123854;28;20234;-78
2023/06/11 10:35:48;;;;;;;6.85;4.82;;;26.60;99.90;;;;;;5122878;28;20208;-76
2023/06/11 10:38:16;;;;;;;6.07;4.50;;;26.50;1.00;;;;;;5123286;28;20205;-77
2023/06/11 10:40:43;;;;;;;7.32;5.03;;;26.70;1.00;;;;;;5122559;28;20211;-76
2023/06/11 10:43:15;;;;;;;5.93;4.57;;;27.00;1.00;;;;;;5122647;28;20658;-77
2023/06/11 10:45:42;;;;;;;8.02;4.97;;;26.70;1.00;;;;;;5122143;28;20232;-76
2023/06/11 10:48:10;;;;;;;7.45;3.95;;;26.40;1.00;;;;;;5122498;28;20201;-76
2023/06/11 10:50:38;;;;;;;6.68;4.50;;;26.70;99.90;;;;;;5122687;28;20228;-79
2023/06/11 10:53:12;;;;;;;7.53;4.63;;;26.90;99.90;;;;;;5123585;28;20239;-79
2023/06/11 10:55:47;;;;;;;6.15;4.45;;;27.10;99.90;;;;;;5121909;28;20235;-78
2023/06/11 10:58:22;;;;;;;10.18;4.30;;;26.90;1.00;;;;;;5123707;28;20204;-78
2023/06/11 11:00:53;;;;;;;5.85;3.90;;;27.10;1.00;;;;;;5123155;28;20292;-79
2023/06/11 11:03:22;;;;;;;7.03;4.68;;;27.10;1.00;;;;;;5121991;28;20292;-78
2023/06/11 11:05:50;;;;;;;8.40;3.88;;;26.80;1.00;;;;;;5121787;28;20204;-76
2023/06/11 11:08:17;;;;;;;6.90;4.00;;;27.20;1.00;;;;;;5122764;28;20268;-77
2023/06/11 11:10:45;;;;;;;5.85;4.30;;;26.90;99.90;;;;;;5122913;28;20189;-76
2023/06/11 11:13:12;;;;;;;5.82;4.03;;;27.40;99.90;;;;;;5122795;28;20231;-76
2023/06/11 11:15:42;;;;;;;5.90;3.90;;;27.40;99.90;;;;;;5122518;28;20189;-78
2023/06/11 11:18:09;;;;;;;5.68;3.90;;;27.20;18.70;;;;;;5122316;28;20201;-78
2023/06/11 11:20:36;;;;;;;7.68;4.90;;;27.40;1.00;;;;;;5121361;28;20201;-79
2023/06/11 11:23:04;;;;;;;7.95;5.00;;;27.60;1.00;;;;;;5122653;28;20307;-78
2023/06/11 11:25:32;;;;;;;5.35;4.40;;;27.80;1.00;;;;;;5119514;28;20211;-79
2023/06/11 11:28:00;;;;;;;7.90;4.53;;;27.90;1.00;;;;;;5120818;28;20205;-77
2023/06/11 11:30:28;;;;;;;5.05;4.07;;;27.70;1.00;;;;;;5121406;28;20220;-79
2023/06/11 11:32:55;;;;;;;5.38;4.40;;;27.60;1.00;;;;;;5119665;28;20634;-78
2023/06/11 11:35:25;;;;;;;5.78;4.00;;;27.30;1.00;;;;;;5120345;28;20237;-80
2023/06/11 11:37:52;;;;;;;7.07;4.45;;;27.50;99.90;;;;;;5120883;28;20197;-77
2023/06/11 11:40:20;;;;;;;10.20;4.53;;;27.50;99.90;;;;;;5121299;28;20224;-78
2023/06/11 11:42:49;;;;;;;6.47;4.43;;;27.60;99.90;;;;;;5121720;28;20197;-77
2023/06/11 11:45:18;;;;;;;4.57;4.15;;;27.50;99.90;;;;;;5121130;28;20231;-77
2023/06/11 11:47:50;;;;;;;4.72;4.22;;;28.00;99.90;;;;;;5120720;28;20323;-79
2023/06/11 11:50:22;;;;;;;6.70;4.55;;;27.70;99.90;;;;;;5119672;28;20279;-79
2023/06/11 11:53:03;;;;;;;4.45;4.05;;;27.60;52.10;;;;;;5121269;28;20213;-80
2023/06/11 11:55:30;;;;;;;5.55;4.18;;;27.60;27.20;;;;;;5119613;28;20211;-78
2023/06/11 11:58:06;;;;;;;6.35;4.30;;;27.40;6.70;;;;;;5120449;28;20213;-80
2023/06/11 12:00:35;;;;;;;5.57;4.53;;;28.00;1.00;;;;;;5120023;28;20293;-80
2023/06/11 12:03:08;;;;;;;5.20;4.05;;;27.90;1.00;;;;;;5119811;28;20299;-78
2023/06/11 12:05:35;;;;;;;4.93;4.20;;;28.10;1.00;;;;;;5120148;28;20220;-80
2023/06/11 12:08:02;;;;;;;8.60;4.40;;;28.20;1.00;;;;;;5119290;28;20254;-80
2023/06/11 12:10:29;;;;;;;7.13;4.53;;;28.50;1.00;;;;;;5120086;28;20312;-79
2023/06/11 12:12:56;;;;;;;5.18;4.43;;;28.90;1.00;;;;;;5119739;28;20204;-80
2023/06/11 12:15:23;;;;;;;5.55;4.10;;;28.20;1.00;;;;;;5120436;28;20256;-79
2023/06/11 12:17:51;;;;;;;4.70;4.30;;;28.60;1.00;;;;;;5119371;28;20295;-80
2023/06/11 12:20:20;;;;;;;6.28;4.30;;;27.90;1.00;;;;;;5120687;28;20649;-80
2023/06/11 12:22:47;;;;;;;5.13;4.60;;;27.70;1.00;;;;;;5119414;28;20275;-77
2023/06/11 12:25:14;;;;;;;6.25;4.47;;;27.60;1.00;;;;;;5118888;28;20576;-77
2023/06/11 12:27:43;;;;;;;6.32;4.40;;;27.80;1.00;;;;;;5116977;28;20213;-77
2023/06/11 12:30:11;;;;;;;5.80;4.95;;;27.50;1.00;;;;;;5119116;28;20622;-78
2023/06/11 12:32:38;;;;;;;4.13;3.72;;;27.50;1.00;;;;;;5119249;28;20283;-79
2023/06/11 12:35:07;;;;;;;5.78;4.07;;;27.50;1.00;;;;;;5120393;28;20210;-78
2023/06/11 12:37:34;;;;;;;4.72;4.20;;;27.90;1.00;;;;;;5120346;28;20216;-79
2023/06/11 12:40:01;;;;;;;7.05;4.60;;;28.30;1.00;;;;;;5117762;28;20645;-78